sensor_id;sensor_type;location;lat;lon;timestamp;P1;durP1;ratioP1;P2;durP2;ratioP2
20476;SDS011;10397;50.948;11.092;2023-02-28T00:01:13;5.97;;;3.07;;
20476;SDS011;10397;50.948;11.092;2023-02-28T00:03:43;4.50;;;2.97;;
20476;SDS011;10397;50.948;11.092;2023-02-28T00:06:14;9.53;;;4.03;;
20476;SDS011;10397;50.948;11.092;2023-02-28T00:08:45;8.80;;;5.37;;
20476;SDS011;10397;50.948;11.092;2023-02-28T00:11:16;9.40;;;5.40;;
20476;SDS011;10397;50.948;11.092;2023-02-28T00:13:46;4.80;;;3.53;;
20476;SDS011;10397;50.948;11.092;2023-02-28T00:16:20;7.33;;;4.40;;
20476;SDS011;10397;50.948;11.092;2023-02-28T00:18:50;7.47;;;5.10;;
20476;SDS011;10397;50.948;11.092;2023-02-28T00:21:21;10.30;;;5.03;;
20476;SDS011;10397;50.948;11.092;2023-02-28T00:23:52;11.23;;;5.70;;
20476;SDS011;10397;50.948;11.092;2023-02-28T00:26:23;6.30;;;4.27;;
20476;SDS011;10397;50.948;11.092;2023-02-28T00:28:54;10.20;;;4.77;;
20476;SDS011;10397;50.948;11.092;2023-02-28T00:31:25;10.20;;;5.50;;
20476;SDS011;10397;50.948;11.092;2023-02-28T00:33:56;10.47;;;5.20;;
20476;SDS011;10397;50.948;11.092;2023-02-28T00:36:27;5.70;;;3.10;;
20476;SDS011;10397;50.948;11.092;2023-02-28T00:38:58;7.53;;;3.10;;
20476;SDS011;10397;50.948;11.092;2023-02-28T00:41:29;3.33;;;2.63;;
20476;SDS011;10397;50.948;11.092;2023-02-28T00:44:01;4.43;;;2.40;;
20476;SDS011;10397;50.948;11.092;2023-02-28T00:46:32;5.87;;;3.77;;
20476;SDS011;10397;50.948;11.092;2023-02-28T00:49:02;7.80;;;4.07;;
20476;SDS011;10397;50.948;11.092;2023-02-28T00:51:34;7.13;;;3.77;;
20476;SDS011;10397;50.948;11.092;2023-02-28T00:54:04;8.10;;;3.87;;
20476;SDS011;10397;50.948;11.092;2023-02-28T00:56:36;8.43;;;4.70;;
20476;SDS011;10397;50.948;11.092;2023-02-28T00:59:07;5.30;;;3.17;;
20476;SDS011;10397;50.948;11.092;2023-02-28T01:01:37;3.67;;;2.63;;
20476;SDS011;10397;50.948;11.092;2023-02-28T01:04:08;4.63;;;2.57;;
20476;SDS011;10397;50.948;11.092;2023-02-28T01:06:39;4.23;;;2.10;;
20476;SDS011;10397;50.948;11.092;2023-02-28T01:09:10;5.60;;;2.33;;
20476;SDS011;10397;50.948;11.092;2023-02-28T01:11:40;6.37;;;2.17;;
20476;SDS011;10397;50.948;11.092;2023-02-28T01:14:14;6.63;;;2.30;;
20476;SDS011;10397;50.948;11.092;2023-02-28T01:16:44;3.57;;;1.80;;
20476;SDS011;10397;50.948;11.092;2023-02-28T01:19:14;4.33;;;2.30;;
20476;SDS011;10397;50.948;11.092;2023-02-28T01:21:45;3.67;;;2.27;;
20476;SDS011;10397;50.948;11.092;2023-02-28T01:24:16;6.20;;;1.87;;
20476;SDS011;10397;50.948;11.092;2023-02-28T01:26:47;3.93;;;1.90;;
20476;SDS011;10397;50.948;11.092;2023-02-28T01:29:18;2.77;;;1.50;;
20476;SDS011;10397;50.948;11.092;2023-02-28T01:34:11;3.57;;;2.10;;
20476;SDS011;10397;50.948;11.092;2023-02-28T01:36:41;2.47;;;1.77;;
20476;SDS011;10397;50.948;11.092;2023-02-28T01:39:12;3.83;;;2.03;;
20476;SDS011;10397;50.948;11.092;2023-02-28T01:41:43;2.63;;;2.27;;
20476;SDS011;10397;50.948;11.092;2023-02-28T01:47:22;2.97;;;1.70;;
20476;SDS011;10397;50.948;11.092;2023-02-28T01:49:52;4.77;;;2.30;;
20476;SDS011;10397;50.948;11.092;2023-02-28T01:52:23;4.77;;;2.27;;
20476;SDS011;10397;50.948;11.092;2023-02-28T01:54:55;3.77;;;2.70;;
20476;SDS011;10397;50.948;11.092;2023-02-28T01:57:27;4.03;;;2.63;;
20476;SDS011;10397;50.948;11.092;2023-02-28T01:59:57;3.23;;;2.07;;
20476;SDS011;10397;50.948;11.092;2023-02-28T02:02:27;3.43;;;2.17;;
20476;SDS011;10397;50.948;11.092;2023-02-28T02:05:00;6.97;;;2.23;;
20476;SDS011;10397;50.948;11.092;2023-02-28T02:07:29;3.97;;;2.63;;
20476;SDS011;10397;50.948;11.092;2023-02-28T02:10:04;4.00;;;2.23;;
20476;SDS011;10397;50.948;11.092;2023-02-28T02:15:14;3.97;;;2.87;;
20476;SDS011;10397;50.948;11.092;2023-02-28T02:17:44;4.20;;;2.30;;
20476;SDS011;10397;50.948;11.092;2023-02-28T02:20:16;4.40;;;2.47;;
20476;SDS011;10397;50.948;11.092;2023-02-28T02:25:54;3.77;;;2.67;;
20476;SDS011;10397;50.948;11.092;2023-02-28T02:28:30;5.37;;;3.50;;
20476;SDS011;10397;50.948;11.092;2023-02-28T02:34:08;5.90;;;4.63;;
20476;SDS011;10397;50.948;11.092;2023-02-28T02:36:42;5.13;;;4.13;;
20476;SDS011;10397;50.948;11.092;2023-02-28T02:39:24;3.97;;;3.30;;
20476;SDS011;10397;50.948;11.092;2023-02-28T02:41:53;4.60;;;3.50;;
20476;SDS011;10397;50.948;11.092;2023-02-28T02:44:25;5.07;;;3.60;;
20476;SDS011;10397;50.948;11.092;2023-02-28T02:46:55;3.83;;;2.83;;
20476;SDS011;10397;50.948;11.092;2023-02-28T02:49:30;3.80;;;2.53;;
20476;SDS011;10397;50.948;11.092;2023-02-28T02:52:01;6.33;;;2.50;;
20476;SDS011;10397;50.948;11.092;2023-02-28T02:54:36;3.90;;;2.70;;
20476;SDS011;10397;50.948;11.092;2023-02-28T02:57:09;2.60;;;2.20;;
20476;SDS011;10397;50.948;11.092;2023-02-28T02:59:37;3.07;;;2.27;;
20476;SDS011;10397;50.948;11.092;2023-02-28T03:02:08;3.13;;;2.13;;
20476;SDS011;10397;50.948;11.092;2023-02-28T03:04:39;4.33;;;2.30;;
20476;SDS011;10397;50.948;11.092;2023-02-28T03:07:08;3.93;;;2.07;;
20476;SDS011;10397;50.948;11.092;2023-02-28T03:09:39;3.23;;;2.17;;
20476;SDS011;10397;50.948;11.092;2023-02-28T03:12:09;2.23;;;1.70;;
20476;SDS011;10397;50.948;11.092;2023-02-28T03:14:46;3.47;;;1.60;;
20476;SDS011;10397;50.948;11.092;2023-02-28T03:23:07;2.67;;;1.40;;
20476;SDS011;10397;50.948;11.092;2023-02-28T03:31:38;3.80;;;1.40;;
20476;SDS011;10397;50.948;11.092;2023-02-28T03:34:12;4.43;;;1.90;;
20476;SDS011;10397;50.948;11.092;2023-02-28T03:36:45;4.07;;;1.70;;
20476;SDS011;10397;50.948;11.092;2023-02-28T03:39:16;3.43;;;1.90;;
20476;SDS011;10397;50.948;11.092;2023-02-28T03:41:52;2.20;;;1.37;;
20476;SDS011;10397;50.948;11.092;2023-02-28T03:44:23;3.87;;;1.90;;
20476;SDS011;10397;50.948;11.092;2023-02-28T03:46:59;4.67;;;1.93;;
20476;SDS011;10397;50.948;11.092;2023-02-28T03:49:42;3.33;;;1.70;;
20476;SDS011;10397;50.948;11.092;2023-02-28T03:52:17;3.80;;;1.90;;
20476;SDS011;10397;50.948;11.092;2023-02-28T03:54:52;3.33;;;1.87;;
20476;SDS011;10397;50.948;11.092;2023-02-28T03:57:28;3.30;;;1.83;;
20476;SDS011;10397;50.948;11.092;2023-02-28T03:59:59;3.43;;;1.77;;
20476;SDS011;10397;50.948;11.092;2023-02-28T04:02:34;2.37;;;1.50;;
20476;SDS011;10397;50.948;11.092;2023-02-28T04:05:05;2.37;;;1.57;;
20476;SDS011;10397;50.948;11.092;2023-02-28T04:07:35;5.77;;;2.10;;
20476;SDS011;10397;50.948;11.092;2023-02-28T04:10:06;4.23;;;1.77;;
20476;SDS011;10397;50.948;11.092;2023-02-28T04:12:37;5.83;;;2.07;;
20476;SDS011;10397;50.948;11.092;2023-02-28T04:15:08;3.53;;;1.50;;
20476;SDS011;10397;50.948;11.092;2023-02-28T04:17:38;3.10;;;1.83;;
20476;SDS011;10397;50.948;11.092;2023-02-28T04:20:10;7.23;;;2.13;;
20476;SDS011;10397;50.948;11.092;2023-02-28T04:22:40;3.13;;;2.20;;
20476;SDS011;10397;50.948;11.092;2023-02-28T04:25:11;4.40;;;2.00;;
20476;SDS011;10397;50.948;11.092;2023-02-28T04:27:42;4.97;;;2.10;;
20476;SDS011;10397;50.948;11.092;2023-02-28T04:30:13;3.40;;;2.20;;
20476;SDS011;10397;50.948;11.092;2023-02-28T04:32:44;5.50;;;2.40;;
20476;SDS011;10397;50.948;11.092;2023-02-28T04:35:15;5.70;;;2.07;;
20476;SDS011;10397;50.948;11.092;2023-02-28T04:37:46;3.60;;;1.93;;
20476;SDS011;10397;50.948;11.092;2023-02-28T04:40:17;4.10;;;2.53;;
20476;SDS011;10397;50.948;11.092;2023-02-28T04:42:47;5.03;;;2.13;;
20476;SDS011;10397;50.948;11.092;2023-02-28T04:45:19;4.53;;;2.03;;
20476;SDS011;10397;50.948;11.092;2023-02-28T04:47:50;5.57;;;2.57;;
20476;SDS011;10397;50.948;11.092;2023-02-28T04:50:21;4.33;;;2.43;;
20476;SDS011;10397;50.948;11.092;2023-02-28T04:52:52;3.77;;;2.47;;
20476;SDS011;10397;50.948;11.092;2023-02-28T04:55:23;5.77;;;2.50;;
20476;SDS011;10397;50.948;11.092;2023-02-28T04:57:55;5.03;;;2.60;;
20476;SDS011;10397;50.948;11.092;2023-02-28T05:00:25;4.73;;;2.37;;
20476;SDS011;10397;50.948;11.092;2023-02-28T05:02:56;3.60;;;2.03;;
20476;SDS011;10397;50.948;11.092;2023-02-28T05:05:27;3.87;;;2.47;;
20476;SDS011;10397;50.948;11.092;2023-02-28T05:07:58;3.93;;;2.20;;
20476;SDS011;10397;50.948;11.092;2023-02-28T05:10:28;4.77;;;2.10;;
20476;SDS011;10397;50.948;11.092;2023-02-28T05:12:59;2.90;;;2.17;;
20476;SDS011;10397;50.948;11.092;2023-02-28T05:15:31;4.67;;;2.87;;
20476;SDS011;10397;50.948;11.092;2023-02-28T05:18:02;3.97;;;2.37;;
20476;SDS011;10397;50.948;11.092;2023-02-28T05:20:32;4.17;;;2.40;;
20476;SDS011;10397;50.948;11.092;2023-02-28T05:23:03;5.43;;;2.63;;
20476;SDS011;10397;50.948;11.092;2023-02-28T05:25:34;4.37;;;2.50;;
20476;SDS011;10397;50.948;11.092;2023-02-28T05:28:05;5.27;;;2.57;;
20476;SDS011;10397;50.948;11.092;2023-02-28T05:30:35;3.90;;;1.80;;
20476;SDS011;10397;50.948;11.092;2023-02-28T05:33:10;4.67;;;2.90;;
20476;SDS011;10397;50.948;11.092;2023-02-28T05:35:38;4.93;;;2.87;;
20476;SDS011;10397;50.948;11.092;2023-02-28T05:38:08;4.43;;;2.53;;
20476;SDS011;10397;50.948;11.092;2023-02-28T05:40:38;5.27;;;2.57;;
20476;SDS011;10397;50.948;11.092;2023-02-28T05:43:10;5.40;;;2.00;;
20476;SDS011;10397;50.948;11.092;2023-02-28T05:45:41;3.73;;;1.73;;
20476;SDS011;10397;50.948;11.092;2023-02-28T05:48:12;6.53;;;2.97;;
20476;SDS011;10397;50.948;11.092;2023-02-28T05:50:43;3.87;;;2.17;;
20476;SDS011;10397;50.948;11.092;2023-02-28T05:53:14;3.90;;;2.67;;
20476;SDS011;10397;50.948;11.092;2023-02-28T05:55:45;2.93;;;1.77;;
20476;SDS011;10397;50.948;11.092;2023-02-28T05:58:16;3.70;;;2.17;;
20476;SDS011;10397;50.948;11.092;2023-02-28T06:00:47;4.40;;;2.70;;
20476;SDS011;10397;50.948;11.092;2023-02-28T06:03:18;3.10;;;1.93;;
20476;SDS011;10397;50.948;11.092;2023-02-28T06:05:49;3.60;;;2.33;;
20476;SDS011;10397;50.948;11.092;2023-02-28T06:08:20;3.80;;;2.43;;
20476;SDS011;10397;50.948;11.092;2023-02-28T06:10:51;4.07;;;2.43;;
20476;SDS011;10397;50.948;11.092;2023-02-28T06:13:22;7.40;;;4.60;;
20476;SDS011;10397;50.948;11.092;2023-02-28T06:15:53;4.33;;;2.40;;
20476;SDS011;10397;50.948;11.092;2023-02-28T06:18:25;9.20;;;2.80;;
20476;SDS011;10397;50.948;11.092;2023-02-28T06:20:56;4.50;;;2.97;;
20476;SDS011;10397;50.948;11.092;2023-02-28T06:23:27;5.40;;;2.93;;
20476;SDS011;10397;50.948;11.092;2023-02-28T06:25:58;4.97;;;3.47;;
20476;SDS011;10397;50.948;11.092;2023-02-28T06:28:29;7.90;;;3.10;;
20476;SDS011;10397;50.948;11.092;2023-02-28T06:31:06;4.37;;;2.97;;
20476;SDS011;10397;50.948;11.092;2023-02-28T06:33:31;5.50;;;3.07;;
20476;SDS011;10397;50.948;11.092;2023-02-28T06:36:01;3.53;;;2.60;;
20476;SDS011;10397;50.948;11.092;2023-02-28T06:38:32;5.70;;;2.70;;
20476;SDS011;10397;50.948;11.092;2023-02-28T06:41:02;3.50;;;2.50;;
20476;SDS011;10397;50.948;11.092;2023-02-28T06:43:34;4.20;;;3.07;;
20476;SDS011;10397;50.948;11.092;2023-02-28T06:46:04;4.57;;;2.90;;
20476;SDS011;10397;50.948;11.092;2023-02-28T06:48:34;4.10;;;2.40;;
20476;SDS011;10397;50.948;11.092;2023-02-28T06:51:06;9.77;;;3.73;;
20476;SDS011;10397;50.948;11.092;2023-02-28T06:53:35;6.23;;;3.47;;
20476;SDS011;10397;50.948;11.092;2023-02-28T06:56:13;4.93;;;3.57;;
20476;SDS011;10397;50.948;11.092;2023-02-28T06:58:45;4.80;;;2.73;;
20476;SDS011;10397;50.948;11.092;2023-02-28T07:01:13;4.17;;;3.17;;
20476;SDS011;10397;50.948;11.092;2023-02-28T07:03:43;11.00;;;3.53;;
20476;SDS011;10397;50.948;11.092;2023-02-28T07:06:14;6.80;;;3.77;;
20476;SDS011;10397;50.948;11.092;2023-02-28T07:08:45;5.00;;;3.73;;
20476;SDS011;10397;50.948;11.092;2023-02-28T07:11:16;4.80;;;3.37;;
20476;SDS011;10397;50.948;11.092;2023-02-28T07:13:47;5.73;;;3.93;;
20476;SDS011;10397;50.948;11.092;2023-02-28T07:16:17;5.70;;;3.17;;
20476;SDS011;10397;50.948;11.092;2023-02-28T07:18:48;10.00;;;3.67;;
20476;SDS011;10397;50.948;11.092;2023-02-28T07:21:19;8.07;;;3.53;;
20476;SDS011;10397;50.948;11.092;2023-02-28T07:23:49;4.67;;;3.20;;
20476;SDS011;10397;50.948;11.092;2023-02-28T07:26:20;5.00;;;2.77;;
20476;SDS011;10397;50.948;11.092;2023-02-28T07:28:51;4.97;;;3.00;;
20476;SDS011;10397;50.948;11.092;2023-02-28T07:31:22;3.97;;;2.70;;
20476;SDS011;10397;50.948;11.092;2023-02-28T07:33:53;3.80;;;2.40;;
20476;SDS011;10397;50.948;11.092;2023-02-28T07:36:24;3.83;;;2.80;;
20476;SDS011;10397;50.948;11.092;2023-02-28T07:38:56;4.37;;;2.03;;
20476;SDS011;10397;50.948;11.092;2023-02-28T07:41:27;3.63;;;2.60;;
20476;SDS011;10397;50.948;11.092;2023-02-28T07:43:57;5.00;;;2.80;;
20476;SDS011;10397;50.948;11.092;2023-02-28T07:46:28;16.87;;;3.20;;
20476;SDS011;10397;50.948;11.092;2023-02-28T07:48:59;6.50;;;2.73;;
20476;SDS011;10397;50.948;11.092;2023-02-28T07:51:30;3.97;;;2.73;;
20476;SDS011;10397;50.948;11.092;2023-02-28T07:54:01;4.90;;;3.00;;
20476;SDS011;10397;50.948;11.092;2023-02-28T07:56:31;4.33;;;2.57;;
20476;SDS011;10397;50.948;11.092;2023-02-28T07:59:02;3.67;;;2.57;;
20476;SDS011;10397;50.948;11.092;2023-02-28T08:01:33;4.13;;;2.50;;
20476;SDS011;10397;50.948;11.092;2023-02-28T08:04:04;6.17;;;2.50;;
20476;SDS011;10397;50.948;11.092;2023-02-28T08:06:35;5.63;;;2.50;;
20476;SDS011;10397;50.948;11.092;2023-02-28T08:09:06;3.67;;;2.47;;
20476;SDS011;10397;50.948;11.092;2023-02-28T08:11:37;6.17;;;2.77;;
20476;SDS011;10397;50.948;11.092;2023-02-28T08:14:08;6.90;;;3.53;;
20476;SDS011;10397;50.948;11.092;2023-02-28T08:16:39;8.83;;;3.03;;
20476;SDS011;10397;50.948;11.092;2023-02-28T08:19:10;3.90;;;2.20;;
20476;SDS011;10397;50.948;11.092;2023-02-28T08:21:41;4.60;;;2.87;;
20476;SDS011;10397;50.948;11.092;2023-02-28T08:24:12;4.37;;;2.10;;
20476;SDS011;10397;50.948;11.092;2023-02-28T08:26:43;6.67;;;2.20;;
20476;SDS011;10397;50.948;11.092;2023-02-28T08:29:14;4.20;;;2.17;;
20476;SDS011;10397;50.948;11.092;2023-02-28T08:31:45;6.17;;;2.67;;
20476;SDS011;10397;50.948;11.092;2023-02-28T08:34:16;4.80;;;3.00;;
20476;SDS011;10397;50.948;11.092;2023-02-28T08:36:47;4.43;;;2.70;;
20476;SDS011;10397;50.948;11.092;2023-02-28T08:39:18;6.10;;;3.30;;
20476;SDS011;10397;50.948;11.092;2023-02-28T08:41:49;3.87;;;2.20;;
20476;SDS011;10397;50.948;11.092;2023-02-28T08:44:20;6.87;;;2.87;;
20476;SDS011;10397;50.948;11.092;2023-02-28T08:46:51;8.43;;;3.03;;
20476;SDS011;10397;50.948;11.092;2023-02-28T08:49:22;4.80;;;3.63;;
20476;SDS011;10397;50.948;11.092;2023-02-28T08:51:53;8.40;;;3.00;;
20476;SDS011;10397;50.948;11.092;2023-02-28T08:54:24;6.27;;;3.57;;
20476;SDS011;10397;50.948;11.092;2023-02-28T08:56:54;4.87;;;3.20;;
20476;SDS011;10397;50.948;11.092;2023-02-28T08:59:26;7.97;;;3.57;;
20476;SDS011;10397;50.948;11.092;2023-02-28T09:01:56;7.30;;;4.23;;
20476;SDS011;10397;50.948;11.092;2023-02-28T09:04:27;4.63;;;2.73;;
20476;SDS011;10397;50.948;11.092;2023-02-28T09:06:58;5.93;;;3.50;;
20476;SDS011;10397;50.948;11.092;2023-02-28T09:09:29;5.43;;;2.70;;
20476;SDS011;10397;50.948;11.092;2023-02-28T09:12:00;4.47;;;2.93;;
20476;SDS011;10397;50.948;11.092;2023-02-28T09:14:31;5.13;;;2.80;;
20476;SDS011;10397;50.948;11.092;2023-02-28T09:17:02;4.53;;;2.83;;
20476;SDS011;10397;50.948;11.092;2023-02-28T09:19:33;3.97;;;2.83;;
20476;SDS011;10397;50.948;11.092;2023-02-28T09:22:04;5.83;;;2.60;;
20476;SDS011;10397;50.948;11.092;2023-02-28T09:24:35;5.37;;;3.27;;
20476;SDS011;10397;50.948;11.092;2023-02-28T09:27:05;5.43;;;2.77;;
20476;SDS011;10397;50.948;11.092;2023-02-28T09:29:36;7.30;;;3.40;;
20476;SDS011;10397;50.948;11.092;2023-02-28T09:32:07;4.77;;;2.40;;
20476;SDS011;10397;50.948;11.092;2023-02-28T09:34:38;4.37;;;2.83;;
20476;SDS011;10397;50.948;11.092;2023-02-28T09:37:09;4.17;;;2.27;;
20476;SDS011;10397;50.948;11.092;2023-02-28T09:39:40;3.10;;;1.90;;
20476;SDS011;10397;50.948;11.092;2023-02-28T09:42:13;3.07;;;1.53;;
20476;SDS011;10397;50.948;11.092;2023-02-28T09:44:42;4.90;;;2.37;;
20476;SDS011;10397;50.948;11.092;2023-02-28T09:49:46;3.63;;;2.10;;
20476;SDS011;10397;50.948;11.092;2023-02-28T09:52:21;6.43;;;2.30;;
20476;SDS011;10397;50.948;11.092;2023-02-28T09:54:49;3.73;;;2.17;;
20476;SDS011;10397;50.948;11.092;2023-02-28T10:02:51;5.50;;;2.17;;
20476;SDS011;10397;50.948;11.092;2023-02-28T10:05:53;4.37;;;2.50;;
20476;SDS011;10397;50.948;11.092;2023-02-28T10:08:26;3.33;;;1.73;;
20476;SDS011;10397;50.948;11.092;2023-02-28T10:10:57;4.53;;;2.33;;
20476;SDS011;10397;50.948;11.092;2023-02-28T10:13:28;4.17;;;2.97;;
20476;SDS011;10397;50.948;11.092;2023-02-28T10:16:06;4.23;;;2.30;;
20476;SDS011;10397;50.948;11.092;2023-02-28T10:18:43;4.63;;;1.67;;
20476;SDS011;10397;50.948;11.092;2023-02-28T10:21:17;3.67;;;2.37;;
20476;SDS011;10397;50.948;11.092;2023-02-28T10:23:45;4.07;;;1.90;;
20476;SDS011;10397;50.948;11.092;2023-02-28T10:26:16;4.63;;;1.73;;
20476;SDS011;10397;50.948;11.092;2023-02-28T10:28:46;2.40;;;1.43;;
20476;SDS011;10397;50.948;11.092;2023-02-28T10:31:18;5.17;;;2.20;;
20476;SDS011;10397;50.948;11.092;2023-02-28T10:33:48;4.77;;;2.50;;
20476;SDS011;10397;50.948;11.092;2023-02-28T10:36:20;3.73;;;2.43;;
20476;SDS011;10397;50.948;11.092;2023-02-28T10:38:49;4.47;;;1.67;;
20476;SDS011;10397;50.948;11.092;2023-02-28T10:41:27;3.90;;;1.93;;
20476;SDS011;10397;50.948;11.092;2023-02-28T10:44:30;3.37;;;2.30;;
20476;SDS011;10397;50.948;11.092;2023-02-28T10:46:39;29.67;;;13.00;;
20476;SDS011;10397;50.948;11.092;2023-02-28T10:49:13;4.33;;;2.50;;
20476;SDS011;10397;50.948;11.092;2023-02-28T10:51:42;4.67;;;1.70;;
20476;SDS011;10397;50.948;11.092;2023-02-28T10:54:18;2.07;;;1.43;;
20476;SDS011;10397;50.948;11.092;2023-02-28T10:56:59;3.27;;;1.80;;
20476;SDS011;10397;50.948;11.092;2023-02-28T10:59:27;4.60;;;1.80;;
20476;SDS011;10397;50.948;11.092;2023-02-28T11:01:59;6.10;;;2.23;;
20476;SDS011;10397;50.948;11.092;2023-02-28T11:07:03;5.20;;;2.50;;
20476;SDS011;10397;50.948;11.092;2023-02-28T11:09:37;6.20;;;2.07;;
20476;SDS011;10397;50.948;11.092;2023-02-28T11:12:05;2.80;;;1.73;;
20476;SDS011;10397;50.948;11.092;2023-02-28T11:14:46;3.33;;;2.30;;
20476;SDS011;10397;50.948;11.092;2023-02-28T11:17:31;4.47;;;3.10;;
20476;SDS011;10397;50.948;11.092;2023-02-28T11:19:45;4.37;;;2.03;;
20476;SDS011;10397;50.948;11.092;2023-02-28T11:22:22;4.30;;;2.83;;
20476;SDS011;10397;50.948;11.092;2023-02-28T11:24:55;3.23;;;2.27;;
20476;SDS011;10397;50.948;11.092;2023-02-28T11:30:01;4.73;;;2.53;;
20476;SDS011;10397;50.948;11.092;2023-02-28T11:32:31;5.27;;;2.57;;
20476;SDS011;10397;50.948;11.092;2023-02-28T11:37:39;3.37;;;2.27;;
20476;SDS011;10397;50.948;11.092;2023-02-28T11:40:13;5.03;;;2.10;;
20476;SDS011;10397;50.948;11.092;2023-02-28T11:42:50;13.07;;;3.07;;
20476;SDS011;10397;50.948;11.092;2023-02-28T11:56:03;5.27;;;2.73;;
20476;SDS011;10397;50.948;11.092;2023-02-28T11:58:43;3.73;;;2.27;;
20476;SDS011;10397;50.948;11.092;2023-02-28T12:01:23;3.20;;;2.13;;
20476;SDS011;10397;50.948;11.092;2023-02-28T12:04:15;4.33;;;2.43;;
20476;SDS011;10397;50.948;11.092;2023-02-28T12:07:00;7.47;;;3.67;;
20476;SDS011;10397;50.948;11.092;2023-02-28T12:09:38;2.93;;;2.30;;
20476;SDS011;10397;50.948;11.092;2023-02-28T12:20:23;5.87;;;3.07;;
20476;SDS011;10397;50.948;11.092;2023-02-28T12:26:01;3.70;;;3.13;;
20476;SDS011;10397;50.948;11.092;2023-02-28T12:28:32;5.63;;;3.33;;
20476;SDS011;10397;50.948;11.092;2023-02-28T12:31:08;6.70;;;3.83;;
20476;SDS011;10397;50.948;11.092;2023-02-28T12:33:51;5.53;;;3.50;;
20476;SDS011;10397;50.948;11.092;2023-02-28T12:36:22;3.80;;;2.40;;
20476;SDS011;10397;50.948;11.092;2023-02-28T12:38:56;6.03;;;3.13;;
20476;SDS011;10397;50.948;11.092;2023-02-28T12:44:18;7.67;;;4.30;;
20476;SDS011;10397;50.948;11.092;2023-02-28T12:46:53;4.87;;;4.00;;
20476;SDS011;10397;50.948;11.092;2023-02-28T12:49:22;7.23;;;2.67;;
20476;SDS011;10397;50.948;11.092;2023-02-28T12:51:51;7.30;;;3.40;;
20476;SDS011;10397;50.948;11.092;2023-02-28T12:54:28;4.00;;;3.57;;
20476;SDS011;10397;50.948;11.092;2023-02-28T12:59:54;5.97;;;3.57;;
20476;SDS011;10397;50.948;11.092;2023-02-28T13:08:20;5.20;;;3.63;;
20476;SDS011;10397;50.948;11.092;2023-02-28T13:10:48;7.00;;;4.20;;
20476;SDS011;10397;50.948;11.092;2023-02-28T13:13:19;4.47;;;3.63;;
20476;SDS011;10397;50.948;11.092;2023-02-28T13:18:38;4.83;;;4.20;;
20476;SDS011;10397;50.948;11.092;2023-02-28T13:21:09;5.60;;;3.53;;
20476;SDS011;10397;50.948;11.092;2023-02-28T13:23:41;8.37;;;3.60;;
20476;SDS011;10397;50.948;11.092;2023-02-28T13:26:15;8.27;;;3.43;;
20476;SDS011;10397;50.948;11.092;2023-02-28T13:31:28;6.30;;;5.40;;
20476;SDS011;10397;50.948;11.092;2023-02-28T13:34:06;6.00;;;3.70;;
20476;SDS011;10397;50.948;11.092;2023-02-28T13:36:36;5.20;;;4.70;;
20476;SDS011;10397;50.948;11.092;2023-02-28T13:39:44;5.47;;;4.37;;
20476;SDS011;10397;50.948;11.092;2023-02-28T13:41:52;6.17;;;4.97;;
20476;SDS011;10397;50.948;11.092;2023-02-28T13:44:23;9.90;;;5.13;;
20476;SDS011;10397;50.948;11.092;2023-02-28T13:49:27;7.27;;;5.40;;
20476;SDS011;10397;50.948;11.092;2023-02-28T14:05:41;6.50;;;5.43;;
20476;SDS011;10397;50.948;11.092;2023-02-28T14:08:15;6.00;;;5.40;;
20476;SDS011;10397;50.948;11.092;2023-02-28T14:10:48;8.03;;;4.00;;
20476;SDS011;10397;50.948;11.092;2023-02-28T14:16:06;6.90;;;5.20;;
20476;SDS011;10397;50.948;11.092;2023-02-28T14:18:38;6.43;;;4.83;;
20476;SDS011;10397;50.948;11.092;2023-02-28T14:21:09;9.37;;;5.63;;
20476;SDS011;10397;50.948;11.092;2023-02-28T14:23:56;7.63;;;4.50;;
20476;SDS011;10397;50.948;11.092;2023-02-28T14:32:13;6.77;;;3.83;;
20476;SDS011;10397;50.948;11.092;2023-02-28T14:34:43;6.27;;;5.00;;
20476;SDS011;10397;50.948;11.092;2023-02-28T14:37:15;6.53;;;5.67;;
20476;SDS011;10397;50.948;11.092;2023-02-28T14:39:47;8.80;;;5.77;;
20476;SDS011;10397;50.948;11.092;2023-02-28T14:42:34;8.20;;;5.57;;
20476;SDS011;10397;50.948;11.092;2023-02-28T14:45:04;6.07;;;5.10;;
20476;SDS011;10397;50.948;11.092;2023-02-28T14:47:34;6.00;;;5.40;;
20476;SDS011;10397;50.948;11.092;2023-02-28T14:50:06;6.10;;;4.70;;
20476;SDS011;10397;50.948;11.092;2023-02-28T14:52:36;7.63;;;5.67;;
20476;SDS011;10397;50.948;11.092;2023-02-28T14:55:12;7.00;;;6.20;;
20476;SDS011;10397;50.948;11.092;2023-02-28T14:57:41;8.63;;;6.60;;
20476;SDS011;10397;50.948;11.092;2023-02-28T15:00:14;5.90;;;4.73;;
20476;SDS011;10397;50.948;11.092;2023-02-28T15:02:44;5.97;;;5.37;;
20476;SDS011;10397;50.948;11.092;2023-02-28T15:07:46;9.70;;;5.80;;
20476;SDS011;10397;50.948;11.092;2023-02-28T15:12:51;8.37;;;5.17;;
20476;SDS011;10397;50.948;11.092;2023-02-28T15:15:24;6.43;;;4.83;;
20476;SDS011;10397;50.948;11.092;2023-02-28T15:17:54;6.53;;;5.43;;
20476;SDS011;10397;50.948;11.092;2023-02-28T15:20:24;5.80;;;4.83;;
20476;SDS011;10397;50.948;11.092;2023-02-28T15:22:55;7.50;;;5.33;;
20476;SDS011;10397;50.948;11.092;2023-02-28T15:25:25;10.80;;;5.17;;
20476;SDS011;10397;50.948;11.092;2023-02-28T15:27:56;7.50;;;4.97;;
20476;SDS011;10397;50.948;11.092;2023-02-28T15:30:28;6.23;;;4.67;;
20476;SDS011;10397;50.948;11.092;2023-02-28T15:35:44;6.83;;;5.07;;
20476;SDS011;10397;50.948;11.092;2023-02-28T15:38:15;8.40;;;6.20;;
20476;SDS011;10397;50.948;11.092;2023-02-28T15:40:46;7.20;;;4.87;;
20476;SDS011;10397;50.948;11.092;2023-02-28T15:43:25;5.77;;;4.50;;
20476;SDS011;10397;50.948;11.092;2023-02-28T15:46:01;6.77;;;4.77;;
20476;SDS011;10397;50.948;11.092;2023-02-28T15:48:34;6.57;;;5.13;;
20476;SDS011;10397;50.948;11.092;2023-02-28T15:56:33;8.40;;;5.53;;
20476;SDS011;10397;50.948;11.092;2023-02-28T15:59:03;10.40;;;6.50;;
20476;SDS011;10397;50.948;11.092;2023-02-28T16:01:34;6.53;;;5.80;;
20476;SDS011;10397;50.948;11.092;2023-02-28T16:04:05;10.67;;;7.10;;
20476;SDS011;10397;50.948;11.092;2023-02-28T16:09:16;8.30;;;5.50;;
20476;SDS011;10397;50.948;11.092;2023-02-28T16:11:49;6.93;;;5.57;;
20476;SDS011;10397;50.948;11.092;2023-02-28T16:14:20;7.93;;;5.87;;
20476;SDS011;10397;50.948;11.092;2023-02-28T16:16:54;7.37;;;5.83;;
20476;SDS011;10397;50.948;11.092;2023-02-28T16:19:23;6.90;;;4.97;;
20476;SDS011;10397;50.948;11.092;2023-02-28T16:21:54;8.07;;;5.13;;
20476;SDS011;10397;50.948;11.092;2023-02-28T16:24:25;14.50;;;5.60;;
20476;SDS011;10397;50.948;11.092;2023-02-28T16:26:56;6.00;;;5.40;;
20476;SDS011;10397;50.948;11.092;2023-02-28T16:29:28;8.93;;;5.43;;
20476;SDS011;10397;50.948;11.092;2023-02-28T16:31:57;6.00;;;5.20;;
20476;SDS011;10397;50.948;11.092;2023-02-28T16:34:28;7.93;;;5.83;;
20476;SDS011;10397;50.948;11.092;2023-02-28T16:36:59;6.17;;;5.57;;
20476;SDS011;10397;50.948;11.092;2023-02-28T16:39:30;7.47;;;5.60;;
20476;SDS011;10397;50.948;11.092;2023-02-28T16:42:01;6.83;;;6.13;;
20476;SDS011;10397;50.948;11.092;2023-02-28T16:44:32;7.80;;;6.20;;
20476;SDS011;10397;50.948;11.092;2023-02-28T16:47:03;9.63;;;6.47;;
20476;SDS011;10397;50.948;11.092;2023-02-28T16:49:32;8.97;;;5.53;;
20476;SDS011;10397;50.948;11.092;2023-02-28T16:52:04;8.87;;;6.60;;
20476;SDS011;10397;50.948;11.092;2023-02-28T16:54:34;8.30;;;7.00;;
20476;SDS011;10397;50.948;11.092;2023-02-28T16:57:05;12.40;;;7.27;;
20476;SDS011;10397;50.948;11.092;2023-02-28T16:59:35;10.70;;;6.50;;
20476;SDS011;10397;50.948;11.092;2023-02-28T17:02:12;10.90;;;6.90;;